createdAt,value
2022-08-20T00:00:52.548Z,88.28
2022-08-20T00:01:53.602Z,88.28
2022-08-20T00:02:52.531Z,88.48
2022-08-20T00:03:53.244Z,88.39
2022-08-20T00:04:52.516Z,88.39
2022-08-20T00:05:52.516Z,88.28
2022-08-20T00:06:52.529Z,88.39
2022-08-20T00:07:52.495Z,88.28
2022-08-20T00:08:52.489Z,88.63
2022-08-20T00:09:52.483Z,88.68
2022-08-20T00:10:55.579Z,88.83
2022-08-20T00:11:53.494Z,88.89
2022-08-20T00:12:52.459Z,88.73
2022-08-20T00:13:52.502Z,88.39
2022-08-20T00:14:52.446Z,88.59
2022-08-20T00:15:52.435Z,88.73
2022-08-20T00:16:53.466Z,88.39
2022-08-20T00:17:53.429Z,88.93
2022-08-20T00:18:52.416Z,88.63
2022-08-20T00:19:52.406Z,89.13
2022-08-20T00:20:52.399Z,89.13
2022-08-20T00:21:52.420Z,89.64
2022-08-20T00:22:53.395Z,89.94
2022-08-20T00:23:52.374Z,89.34
2022-08-20T00:24:52.379Z,88.97
2022-08-20T00:25:52.365Z,89.54
2022-08-20T00:26:52.785Z,89.34
2022-08-20T00:27:52.351Z,89.43
2022-08-20T00:28:52.344Z,88.83
2022-08-20T00:29:52.331Z,89.03
2022-08-20T00:30:52.361Z,88.73
2022-08-20T00:31:52.342Z,88.53
2022-08-20T00:32:52.311Z,88.53
2022-08-20T00:33:52.307Z,88.83
2022-08-20T00:34:52.290Z,88.73
2022-08-20T00:35:52.287Z,88.53
2022-08-20T00:36:52.303Z,88.63
2022-08-20T00:37:52.297Z,88.73
2022-08-20T00:38:52.265Z,88.93
2022-08-20T00:39:52.285Z,89.48
2022-08-20T00:40:52.246Z,89.58
2022-08-20T00:41:52.262Z,89.28
2022-08-20T00:42:53.238Z,89.48
2022-08-20T00:43:52.218Z,89.88
2022-08-20T00:44:52.213Z,89.78
2022-08-20T00:45:52.206Z,89.98
2022-08-20T00:46:52.221Z,89.88
2022-08-20T00:47:52.269Z,89.98
2022-08-20T00:48:52.182Z,89.37
2022-08-20T00:49:52.179Z,89.88
2022-08-20T00:50:52.166Z,89.98
2022-08-20T00:51:52.194Z,90.08
2022-08-20T00:52:52.151Z,89.98
2022-08-20T00:53:52.145Z,89.74
2022-08-20T00:54:52.132Z,89.37
2022-08-20T00:55:52.130Z,89.17
2022-08-20T00:56:52.151Z,89.58
2022-08-20T00:58:01.461Z,89.62
2022-08-20T00:58:53.107Z,89.72
2022-08-20T00:59:52.097Z,89.83
2022-08-20T01:00:52.089Z,89.92
2022-08-20T01:01:55.793Z,89.97
2022-08-20T01:02:52.075Z,90.27
2022-08-20T01:03:52.068Z,91.22
2022-08-20T01:04:52.064Z,92.42
2022-08-20T01:05:52.050Z,92.72
2022-08-20T01:06:52.075Z,93.13
2022-08-20T01:07:52.050Z,93.43
2022-08-20T01:08:52.029Z,94.04
2022-08-20T01:09:58.838Z,94.35
2022-08-20T01:10:53.013Z,94.30
2022-08-20T01:11:52.035Z,94.20
2022-08-20T01:12:54.925Z,93.24
2022-08-20T01:13:52.992Z,92.64
2022-08-20T01:14:51.979Z,92.79
2022-08-20T01:15:51.983Z,92.79
2022-08-20T01:16:51.992Z,92.88
2022-08-20T01:17:52.023Z,92.72
2022-08-20T01:18:51.954Z,93.94
2022-08-20T01:19:51.941Z,93.94
2022-08-20T01:20:51.934Z,94.24
2022-08-20T01:21:52.015Z,94.35
2022-08-20T01:22:51.922Z,94.55
2022-08-20T01:23:51.909Z,94.55
2022-08-20T01:24:51.904Z,94.75
2022-08-20T01:25:51.894Z,94.14
2022-08-20T01:26:51.917Z,94.35
2022-08-20T01:27:55.167Z,94.40
2022-08-20T01:28:51.893Z,93.79
2022-08-20T01:29:51.868Z,93.70
2022-08-20T01:30:51.864Z,93.04
2022-08-20T01:31:51.888Z,92.84
2022-08-20T01:32:51.848Z,92.64
2022-08-20T01:33:51.840Z,92.54
2022-08-20T01:34:51.838Z,92.84
2022-08-20T01:35:51.826Z,92.84
2022-08-20T01:36:51.864Z,92.90
2022-08-20T01:37:51.845Z,92.13
2022-08-20T01:38:54.406Z,91.53
2022-08-20T01:39:51.837Z,91.73
2022-08-20T01:40:51.790Z,91.93
2022-08-20T01:41:51.784Z,92.03
2022-08-20T01:42:59.003Z,92.28
2022-08-20T01:43:52.766Z,92.38
2022-08-20T01:44:51.760Z,92.48
2022-08-20T01:45:51.753Z,92.38
2022-08-20T01:47:23.683Z,92.88
2022-08-20T01:47:51.734Z,92.93
2022-08-20T01:48:51.729Z,93.19
2022-08-20T01:49:51.716Z,93.33
2022-08-20T01:50:51.710Z,92.83
2022-08-20T01:51:51.722Z,93.19
2022-08-20T01:52:51.719Z,93.08
2022-08-20T01:53:51.707Z,93.08
2022-08-20T01:54:51.682Z,93.08
2022-08-20T01:55:51.668Z,93.08
2022-08-20T01:56:51.669Z,92.99
2022-08-20T01:57:51.697Z,92.99
2022-08-20T01:58:56.245Z,93.19
2022-08-20T01:59:52.643Z,92.88
2022-08-20T02:00:51.638Z,92.68
2022-08-20T02:01:51.673Z,92.58
2022-08-20T02:02:51.645Z,92.88
2022-08-20T02:03:51.635Z,92.88
2022-08-20T02:04:51.602Z,92.88
2022-08-20T02:05:51.597Z,92.88
2022-08-20T02:06:56.543Z,93.08
2022-08-20T02:07:52.612Z,92.99
2022-08-20T02:08:51.578Z,92.79
2022-08-20T02:09:51.570Z,92.99
2022-08-20T02:10:51.568Z,92.88
2022-08-20T02:11:51.589Z,92.88
2022-08-20T02:12:51.569Z,92.88
2022-08-20T02:13:52.549Z,92.88
2022-08-20T02:14:51.538Z,92.79
2022-08-20T02:15:51.528Z,92.48
2022-08-20T02:16:55.006Z,92.63
2022-08-20T02:17:52.535Z,92.79
2022-08-20T02:18:51.509Z,92.79
2022-08-20T02:19:51.502Z,92.83
2022-08-20T02:20:51.490Z,92.72
2022-08-20T02:21:51.499Z,93.33
2022-08-20T02:22:51.499Z,92.83
2022-08-20T02:23:51.484Z,92.93
2022-08-20T02:24:51.460Z,92.93
2022-08-20T02:25:51.458Z,92.72
2022-08-20T02:26:51.447Z,91.92
2022-08-20T02:27:51.491Z,91.86
2022-08-20T02:28:52.451Z,93.07
2022-08-20T02:29:51.425Z,92.67
2022-08-20T02:30:51.415Z,92.87
2022-08-20T02:32:32.395Z,93.27
2022-08-20T02:32:52.428Z,92.67
2022-08-20T02:34:22.246Z,93.12
2022-08-20T02:34:52.389Z,93.02
2022-08-20T02:35:51.382Z,93.42
2022-08-20T02:36:51.374Z,93.58
2022-08-20T02:37:51.433Z,93.58
2022-08-20T02:38:51.356Z,94.54
2022-08-20T02:39:51.379Z,94.19
2022-08-20T02:40:51.345Z,94.59
2022-08-20T02:41:51.361Z,94.79
2022-08-20T02:42:51.354Z,94.59
2022-08-20T02:43:51.330Z,94.29
2022-08-20T02:44:51.315Z,94.09
2022-08-20T02:45:51.309Z,93.58
2022-08-20T02:46:51.302Z,93.38
2022-08-20T02:47:51.321Z,93.38
2022-08-20T02:48:51.282Z,93.78
2022-08-20T02:49:51.284Z,93.93
2022-08-20T02:50:51.269Z,94.43
2022-08-20T02:51:51.260Z,93.83
2022-08-20T02:52:51.801Z,94.84
2022-08-20T02:53:51.273Z,94.84
2022-08-20T02:54:51.240Z,94.64
2022-08-20T02:55:51.237Z,94.64
2022-08-20T02:56:51.224Z,94.49
2022-08-20T02:57:51.295Z,94.64
2022-08-20T02:58:51.214Z,94.70
2022-08-20T02:59:51.205Z,94.59
2022-08-20T03:00:51.181Z,95.10
2022-08-20T03:01:59.186Z,94.29
2022-08-20T03:02:52.198Z,94.19
2022-08-20T03:03:51.201Z,94.19
2022-08-20T03:04:51.161Z,94.19
2022-08-20T03:05:51.150Z,94.54
2022-08-20T03:06:51.153Z,95.04
2022-08-20T03:07:51.179Z,95.04
2022-08-20T03:08:51.134Z,95.14
2022-08-20T03:09:51.129Z,95.04
2022-08-20T03:10:51.119Z,95.25
2022-08-20T03:11:51.110Z,95.45
2022-08-20T03:12:51.130Z,95.86
2022-08-20T03:13:51.119Z,95.75
2022-08-20T03:14:51.089Z,95.45
2022-08-20T03:15:54.166Z,95.35
2022-08-20T03:16:52.077Z,95.04
2022-08-20T03:17:51.067Z,95.14
2022-08-20T03:18:52.289Z,95.04
2022-08-20T03:19:51.055Z,95.35
2022-08-20T03:20:52.102Z,95.35
2022-08-20T03:21:51.047Z,95.45
2022-08-20T03:22:51.033Z,94.94
2022-08-20T03:23:51.047Z,95.04
2022-08-20T03:24:51.014Z,95.25
2022-08-20T03:25:51.004Z,95.20
2022-08-20T03:26:50.997Z,95.40
2022-08-20T03:27:54.127Z,94.49
2022-08-20T03:28:50.988Z,95.10
2022-08-20T03:29:50.973Z,94.70
2022-08-20T03:30:50.971Z,94.59
2022-08-20T03:31:50.985Z,94.59
2022-08-20T03:32:50.986Z,94.19
2022-08-20T03:33:52.718Z,94.49
2022-08-20T03:34:50.944Z,94.19
2022-08-20T03:35:50.931Z,94.94
2022-08-20T03:36:50.924Z,94.64
2022-08-20T03:37:50.989Z,94.94
2022-08-20T03:38:50.911Z,94.64
2022-08-20T03:39:50.947Z,95.04
2022-08-20T03:40:50.899Z,95.19
2022-08-20T03:41:50.909Z,95.59
2022-08-20T03:42:50.912Z,95.29
2022-08-20T03:43:50.873Z,95.59
2022-08-20T03:44:58.884Z,96.15
2022-08-20T03:45:51.856Z,96.45
2022-08-20T03:46:50.853Z,96.66
2022-08-20T03:47:50.879Z,96.45
2022-08-20T03:48:50.839Z,96.35
2022-08-20T03:49:51.830Z,96.00
2022-08-20T03:50:50.825Z,95.90
2022-08-20T03:51:57.531Z,96.30
2022-08-20T03:52:51.831Z,95.90
2022-08-20T03:53:50.822Z,95.90
2022-08-20T03:54:50.789Z,95.90
2022-08-20T03:55:53.952Z,95.70
2022-08-20T03:56:50.777Z,96.10
2022-08-20T03:57:50.793Z,97.16
2022-08-20T03:58:50.759Z,96.86
2022-08-20T03:59:58.156Z,96.66
2022-08-20T04:00:51.749Z,96.81
2022-08-20T04:01:50.780Z,96.81
2022-08-20T04:02:50.758Z,96.91
2022-08-20T04:03:55.005Z,96.71
2022-08-20T04:04:51.719Z,97.47
2022-08-20T04:05:50.701Z,97.51
2022-08-20T04:06:51.704Z,97.61
2022-08-20T04:07:50.795Z,97.71
2022-08-20T04:08:50.688Z,98.73
2022-08-20T04:09:50.693Z,98.52
2022-08-20T04:10:50.678Z,98.38
2022-08-20T04:11:50.675Z,98.48
2022-08-20T04:12:53.135Z,97.56
2022-08-20T04:13:50.678Z,97.77
2022-08-20T04:14:50.637Z,97.26
2022-08-20T04:15:50.633Z,97.62
2022-08-20T04:16:50.630Z,97.11
2022-08-20T04:17:50.617Z,97.22
2022-08-20T04:19:01.692Z,96.71
2022-08-20T04:19:51.603Z,96.61
2022-08-20T04:20:50.604Z,96.46
2022-08-20T04:21:50.588Z,95.95
2022-08-20T04:22:57.538Z,95.40
2022-08-20T04:23:51.725Z,95.25
2022-08-20T04:24:50.561Z,94.94
2022-08-20T04:25:50.553Z,95.25
2022-08-20T04:26:50.548Z,95.14
2022-08-20T04:27:50.620Z,95.04
2022-08-20T04:28:50.562Z,95.14
2022-08-20T04:29:50.522Z,95.10
2022-08-20T04:30:51.887Z,94.79
2022-08-20T04:31:50.515Z,94.94
2022-08-20T04:32:50.499Z,94.70
2022-08-20T04:33:50.522Z,94.70
2022-08-20T04:34:50.483Z,94.79
2022-08-20T04:35:50.475Z,94.79
2022-08-20T04:36:50.463Z,95.00
2022-08-20T04:37:50.465Z,94.70
2022-08-20T04:38:51.115Z,94.39
2022-08-20T04:39:50.507Z,94.14
2022-08-20T04:40:50.437Z,94.24
2022-08-20T04:41:50.451Z,93.63
2022-08-20T04:42:53.184Z,93.54
2022-08-20T04:43:50.444Z,93.74
2022-08-20T04:44:50.412Z,93.63
2022-08-20T04:45:50.405Z,93.94
2022-08-20T04:46:50.389Z,93.94
2022-08-20T04:47:50.414Z,93.33
2022-08-20T04:48:50.762Z,93.19
2022-08-20T04:49:50.396Z,93.23
2022-08-20T04:50:50.367Z,93.39
2022-08-20T04:51:50.355Z,93.19
2022-08-20T04:52:50.345Z,93.19
2022-08-20T04:53:51.966Z,93.33
2022-08-20T04:54:50.335Z,92.68
2022-08-20T04:55:50.318Z,93.63
2022-08-20T04:56:50.315Z,93.13
2022-08-20T04:57:50.337Z,94.04
2022-08-20T04:58:50.296Z,94.49
2022-08-20T04:59:50.291Z,95.14
2022-08-20T05:00:50.363Z,95.35
2022-08-20T05:01:50.262Z,95.40
2022-08-20T05:02:51.296Z,95.10
2022-08-20T05:03:50.263Z,94.49
2022-08-20T05:04:50.265Z,94.79
2022-08-20T05:05:50.247Z,94.85
2022-08-20T05:06:50.243Z,95.06
2022-08-20T05:07:50.263Z,94.75
2022-08-20T05:08:50.226Z,93.59
2022-08-20T05:09:50.222Z,93.49
2022-08-20T05:10:50.217Z,93.29
2022-08-20T05:11:51.210Z,93.24
2022-08-20T05:12:56.817Z,92.94
2022-08-20T05:13:51.189Z,92.74
2022-08-20T05:14:50.180Z,92.64
2022-08-20T05:15:50.172Z,92.54
2022-08-20T05:16:50.171Z,92.94
2022-08-20T05:17:50.237Z,92.44
2022-08-20T05:18:52.439Z,92.44
2022-08-20T05:19:50.178Z,92.33
2022-08-20T05:20:50.131Z,92.64
2022-08-20T05:21:50.120Z,91.99
2022-08-20T05:22:50.157Z,91.63
2022-08-20T05:23:50.120Z,91.89
2022-08-20T05:24:50.116Z,91.49
2022-08-20T05:25:50.097Z,91.38
2022-08-20T05:26:50.097Z,91.18
2022-08-20T05:27:50.189Z,91.28
2022-08-20T05:28:57.900Z,91.28
2022-08-20T05:29:51.064Z,90.47
2022-08-20T05:30:50.059Z,90.98
2022-08-20T05:31:50.062Z,91.18
2022-08-20T05:32:50.040Z,90.88
2022-08-20T05:33:50.053Z,90.23
2022-08-20T05:34:50.042Z,90.17
2022-08-20T05:35:50.017Z,90.23
2022-08-20T05:36:50.028Z,90.83
2022-08-20T05:37:50.028Z,91.14
2022-08-20T05:38:50.025Z,90.94
2022-08-20T05:39:50.051Z,90.94
2022-08-20T05:40:49.979Z,90.94
2022-08-20T05:41:49.987Z,90.12
2022-08-20T05:42:49.970Z,90.19
2022-08-20T05:43:51.511Z,90.03
2022-08-20T05:44:49.953Z,89.98
2022-08-20T05:45:52.385Z,89.37
2022-08-20T05:46:50.935Z,89.48
2022-08-20T05:47:56.619Z,89.37
2022-08-20T05:48:50.945Z,89.37
2022-08-20T05:49:49.911Z,89.52
2022-08-20T05:50:49.904Z,89.68
2022-08-20T05:51:49.895Z,89.72
2022-08-20T05:52:49.899Z,89.98
2022-08-20T05:53:49.910Z,90.23
2022-08-20T05:54:49.891Z,89.98
2022-08-20T05:55:49.865Z,90.03
2022-08-20T05:56:49.866Z,90.08
2022-08-20T05:57:49.881Z,89.88
2022-08-20T05:58:49.877Z,89.98
2022-08-20T05:59:49.835Z,89.68
2022-08-20T06:00:49.885Z,89.58
2022-08-20T06:01:49.833Z,89.23
2022-08-20T06:02:49.812Z,89.43
2022-08-20T06:03:49.827Z,89.43
2022-08-20T06:04:56.081Z,89.34
2022-08-20T06:05:50.803Z,89.90
2022-08-20T06:06:49.798Z,88.73
2022-08-20T06:07:49.813Z,88.48
2022-08-20T06:08:49.789Z,88.48
2022-08-20T06:09:49.755Z,88.48
2022-08-20T06:10:49.750Z,88.89
2022-08-20T06:11:49.738Z,88.59
2022-08-20T06:12:49.735Z,88.39
2022-08-20T06:13:49.754Z,88.18
2022-08-20T06:14:49.712Z,88.18
2022-08-20T06:15:49.706Z,88.28
2022-08-20T06:16:57.930Z,87.88
2022-08-20T06:17:56.140Z,87.88
2022-08-20T06:18:50.708Z,87.94
2022-08-20T06:19:49.820Z,87.98
2022-08-20T06:20:49.670Z,87.58
2022-08-20T06:21:49.660Z,87.54
2022-08-20T06:22:49.656Z,87.84
2022-08-20T06:23:57.677Z,87.74
2022-08-20T06:24:50.635Z,87.34
2022-08-20T06:25:49.659Z,87.74
2022-08-20T06:26:49.626Z,87.43
2022-08-20T06:27:49.648Z,87.74
2022-08-20T06:28:49.818Z,87.43
2022-08-20T06:29:49.606Z,87.03
2022-08-20T06:30:49.604Z,86.69
2022-08-20T06:31:49.612Z,86.99
2022-08-20T06:32:49.581Z,86.99
2022-08-20T06:33:49.599Z,86.79
2022-08-20T06:34:50.350Z,86.99
2022-08-20T06:35:49.559Z,86.99
2022-08-20T06:36:49.550Z,86.89
2022-08-20T06:37:49.584Z,86.55
2022-08-20T06:38:49.563Z,86.35
2022-08-20T06:39:50.583Z,86.35
2022-08-20T06:40:49.522Z,86.24
2022-08-20T06:41:49.511Z,86.00
2022-08-20T06:42:49.510Z,86.15
2022-08-20T06:43:49.523Z,85.90
2022-08-20T06:44:49.516Z,86.00
2022-08-20T06:45:49.476Z,86.10
2022-08-20T06:46:49.502Z,86.61
2022-08-20T06:47:49.528Z,86.36
2022-08-20T06:48:49.497Z,86.00
2022-08-20T06:49:49.456Z,86.36
2022-08-20T06:50:49.443Z,86.77
2022-08-20T06:51:50.053Z,86.46
2022-08-20T06:53:03.278Z,86.97
2022-08-20T06:53:50.477Z,86.61
2022-08-20T06:54:49.411Z,87.31
2022-08-20T06:55:49.408Z,87.92
2022-08-20T06:56:49.400Z,87.01
2022-08-20T06:57:49.394Z,87.82
2022-08-20T06:58:49.384Z,87.77
2022-08-20T06:59:54.335Z,87.77
2022-08-20T07:00:50.377Z,87.37
2022-08-20T07:01:49.358Z,86.57
2022-08-20T07:02:49.426Z,86.87
2022-08-20T07:03:55.386Z,86.87
2022-08-20T07:04:50.372Z,87.07
2022-08-20T07:05:49.328Z,86.63
2022-08-20T07:06:49.324Z,86.22
2022-08-20T07:07:49.313Z,87.23
2022-08-20T07:08:49.357Z,86.72
2022-08-20T07:09:49.322Z,86.72
2022-08-20T07:10:49.276Z,86.22
2022-08-20T07:11:50.281Z,87.02
2022-08-20T07:12:49.320Z,86.52
2022-08-20T07:13:49.260Z,86.46
2022-08-20T07:14:49.307Z,86.52
2022-08-20T07:15:49.249Z,86.16
2022-08-20T07:16:49.255Z,86.26
2022-08-20T07:17:49.230Z,86.91
2022-08-20T07:18:49.249Z,87.27
2022-08-20T07:19:49.220Z,87.17
2022-08-20T07:20:49.211Z,87.87
2022-08-20T07:21:49.204Z,86.81
2022-08-20T07:22:49.198Z,86.61
2022-08-20T07:23:49.210Z,87.31
2022-08-20T07:24:49.343Z,88.12
2022-08-20T07:25:50.167Z,88.32
2022-08-20T07:26:49.184Z,88.32
2022-08-20T07:27:49.163Z,88.52
2022-08-20T07:28:49.145Z,89.57
2022-08-20T07:29:49.161Z,89.87
2022-08-20T07:30:56.197Z,90.28
2022-08-20T07:31:50.125Z,91.38
2022-08-20T07:32:49.116Z,90.78
2022-08-20T07:33:50.421Z,91.24
2022-08-20T07:34:49.127Z,92.39
2022-08-20T07:35:49.097Z,91.99
2022-08-20T07:36:49.095Z,91.78
2022-08-20T07:37:49.086Z,92.19
2022-08-20T07:38:49.069Z,92.19
2022-08-20T07:39:49.164Z,92.49
2022-08-20T07:40:49.055Z,93.19
2022-08-20T07:41:56.483Z,94.15
2022-08-20T07:42:50.074Z,94.55
2022-08-20T07:43:49.028Z,93.85
2022-08-20T07:44:49.047Z,93.74
2022-08-20T07:45:49.952Z,94.35
2022-08-20T07:46:49.010Z,94.70
2022-08-20T07:48:29.660Z,94.70
2022-08-20T07:48:50.091Z,95.30
2022-08-20T07:49:49.002Z,95.20
2022-08-20T07:50:48.970Z,95.20
2022-08-20T07:51:48.970Z,95.61
2022-08-20T07:52:49.049Z,95.61
2022-08-20T07:53:48.946Z,95.70
2022-08-20T07:54:48.970Z,95.45
2022-08-20T07:55:57.157Z,96.15
2022-08-20T07:56:49.931Z,96.25
2022-08-20T07:57:48.921Z,96.66
2022-08-20T07:58:48.906Z,96.56
2022-08-20T07:59:48.936Z,96.96
2022-08-20T08:00:48.936Z,97.27
2022-08-20T08:01:48.886Z,96.76
2022-08-20T08:02:48.877Z,96.66
2022-08-20T08:03:49.789Z,96.81
2022-08-20T08:04:48.886Z,97.77
2022-08-20T08:05:48.856Z,97.67
2022-08-20T08:06:48.846Z,97.67
2022-08-20T08:07:48.838Z,97.82
2022-08-20T08:08:48.829Z,97.52
2022-08-20T08:09:48.846Z,97.82
2022-08-20T08:10:48.819Z,98.02
2022-08-20T08:11:48.814Z,97.72
2022-08-20T08:12:48.846Z,97.92
2022-08-20T08:13:48.817Z,97.82
2022-08-20T08:14:48.809Z,97.62
2022-08-20T08:15:48.776Z,97.92
2022-08-20T08:16:48.778Z,98.13
2022-08-20T08:17:49.485Z,97.92
2022-08-20T08:18:48.761Z,97.88
2022-08-20T08:19:48.774Z,97.47
2022-08-20T08:20:48.736Z,97.67
2022-08-20T08:21:48.727Z,97.92
2022-08-20T08:22:48.724Z,97.12
2022-08-20T08:23:48.713Z,97.72
2022-08-20T08:24:57.326Z,97.67
2022-08-20T08:25:49.730Z,97.78
2022-08-20T08:26:48.692Z,97.63
2022-08-20T08:27:48.680Z,97.58
2022-08-20T08:28:48.677Z,97.43
2022-08-20T08:29:48.696Z,97.43
2022-08-20T08:30:48.663Z,97.53
2022-08-20T08:31:48.650Z,96.52
2022-08-20T08:32:48.654Z,97.03
2022-08-20T08:33:48.641Z,96.83
2022-08-20T08:34:48.654Z,96.62
2022-08-20T08:35:48.627Z,96.92
2022-08-20T08:36:48.618Z,97.03
2022-08-20T08:37:48.609Z,96.68
2022-08-20T08:38:48.602Z,96.52
2022-08-20T08:39:48.632Z,97.58
2022-08-20T08:40:48.590Z,96.98
2022-08-20T08:41:48.576Z,97.18
2022-08-20T08:42:48.564Z,96.23
2022-08-20T08:43:48.618Z,96.78
2022-08-20T08:44:48.581Z,96.43
2022-08-20T08:45:48.548Z,96.43
2022-08-20T08:46:48.537Z,96.03
2022-08-20T08:47:48.531Z,97.03
2022-08-20T08:48:48.558Z,96.33
2022-08-20T08:49:48.574Z,96.43
2022-08-20T08:50:53.408Z,96.48
2022-08-20T08:51:50.497Z,96.08
2022-08-20T08:52:48.495Z,96.14
2022-08-20T08:53:48.492Z,95.73
2022-08-20T08:54:48.499Z,94.83
2022-08-20T08:55:48.485Z,94.63
2022-08-20T08:56:50.393Z,94.83
2022-08-20T08:57:48.458Z,94.53
2022-08-20T08:58:48.447Z,94.28
2022-08-20T09:00:02.474Z,94.18
2022-08-20T09:00:57.552Z,93.78
2022-08-20T09:01:53.861Z,93.52
2022-08-20T09:02:49.429Z,94.18
2022-08-20T09:03:48.409Z,94.24
2022-08-20T09:04:48.426Z,93.63
2022-08-20T09:05:48.399Z,93.74
2022-08-20T09:06:51.730Z,93.69
2022-08-20T09:07:49.370Z,92.89
2022-08-20T09:08:48.366Z,92.65
2022-08-20T09:09:48.393Z,91.74
2022-08-20T09:10:48.368Z,92.14
2022-08-20T09:11:48.349Z,91.94
2022-08-20T09:12:48.337Z,91.80
2022-08-20T09:13:48.332Z,92.10
2022-08-20T09:14:48.348Z,91.39
2022-08-20T09:15:48.314Z,91.19
2022-08-20T09:16:52.781Z,92.00
2022-08-20T09:17:49.306Z,92.05
2022-08-20T09:18:48.336Z,90.75
2022-08-20T09:19:48.312Z,90.35
2022-08-20T09:20:48.274Z,90.45
2022-08-20T09:21:48.269Z,89.40
2022-08-20T09:22:48.266Z,90.36
2022-08-20T09:23:48.252Z,88.96
2022-08-20T09:24:48.251Z,88.86
2022-08-20T09:25:48.248Z,87.96
2022-08-20T09:26:49.232Z,89.12
2022-08-20T09:27:48.240Z,88.62
2022-08-20T09:28:52.189Z,87.55
2022-08-20T09:29:49.303Z,88.56
2022-08-20T09:30:48.234Z,89.36
2022-08-20T09:31:48.184Z,88.62
2022-08-20T09:32:48.175Z,88.37
2022-08-20T09:33:48.172Z,88.03
2022-08-20T09:34:48.165Z,86.33
2022-08-20T09:35:48.182Z,86.59
2022-08-20T09:36:48.154Z,86.19
2022-08-20T09:37:50.943Z,84.93
2022-08-20T09:38:48.141Z,85.33
2022-08-20T09:39:48.183Z,87.89
2022-08-20T09:40:48.155Z,86.19
2022-08-20T09:41:48.115Z,86.13
2022-08-20T09:42:48.113Z,86.79
2022-08-20T09:43:48.096Z,87.29
2022-08-20T09:44:48.087Z,84.75
2022-08-20T09:45:48.123Z,84.19
2022-08-20T09:46:48.077Z,84.39
2022-08-20T09:47:55.365Z,84.89
2022-08-20T09:48:49.064Z,84.59
2022-08-20T09:49:48.054Z,86.09
2022-08-20T09:50:48.095Z,86.95
2022-08-20T09:51:48.037Z,85.45
2022-08-20T09:52:48.049Z,85.53
2022-08-20T09:53:48.022Z,86.29
2022-08-20T09:54:48.031Z,84.35
2022-08-20T09:55:48.037Z,84.89
2022-08-20T09:56:48.001Z,85.89
2022-08-20T09:57:48.002Z,84.49
2022-08-20T09:58:47.989Z,85.13
2022-08-20T09:59:47.977Z,86.33
2022-08-20T10:00:48.044Z,85.69
2022-08-20T10:01:48.031Z,85.29
2022-08-20T10:02:47.961Z,84.69
2022-08-20T10:03:47.953Z,84.69
2022-08-20T10:04:47.958Z,83.83
2022-08-20T10:05:47.965Z,86.63
2022-08-20T10:06:47.934Z,85.89
2022-08-20T10:07:47.919Z,85.55
2022-08-20T10:08:47.918Z,84.71
2022-08-20T10:09:47.904Z,83.23
2022-08-20T10:10:47.928Z,84.05
2022-08-20T10:11:47.887Z,84.21
2022-08-20T10:12:50.561Z,81.18
2022-08-20T10:13:48.877Z,81.10
2022-08-20T10:14:47.868Z,77.66
2022-08-20T10:15:47.903Z,79.75
2022-08-20T10:16:47.856Z,78.35
2022-08-20T10:17:47.849Z,78.92
2022-08-20T10:18:47.844Z,78.77
2022-08-20T10:19:47.844Z,79.54
2022-08-20T10:20:47.857Z,81.27
2022-08-20T10:21:47.818Z,82.28
2022-08-20T10:22:47.819Z,82.57
2022-08-20T10:23:47.810Z,83.47
2022-08-20T10:24:47.795Z,82.64
2022-08-20T10:25:47.813Z,84.31
2022-08-20T10:26:47.814Z,85.39
2022-08-20T10:27:47.967Z,86.37
2022-08-20T10:28:47.772Z,86.87
2022-08-20T10:29:47.756Z,87.12
2022-08-20T10:30:47.800Z,86.91
2022-08-20T10:31:47.738Z,87.86
2022-08-20T10:32:47.753Z,88.06
2022-08-20T10:33:47.725Z,89.02
2022-08-20T10:34:47.723Z,87.92
2022-08-20T10:35:47.734Z,87.66
2022-08-20T10:36:47.706Z,88.16
2022-08-20T10:37:47.696Z,88.96
2022-08-20T10:38:47.682Z,89.46
2022-08-20T10:39:47.764Z,87.96
2022-08-20T10:40:52.351Z,88.90
2022-08-20T10:41:48.662Z,89.46
2022-08-20T10:42:47.657Z,87.32
2022-08-20T10:43:47.664Z,87.71
2022-08-20T10:44:47.641Z,88.06
2022-08-20T10:45:47.703Z,87.96
2022-08-20T10:46:47.631Z,87.32
2022-08-20T10:47:47.620Z,87.92
2022-08-20T10:48:47.616Z,87.62
2022-08-20T10:49:47.604Z,88.06
2022-08-20T10:50:47.624Z,88.00
2022-08-20T10:51:47.595Z,87.46
2022-08-20T10:52:47.598Z,87.05
2022-08-20T10:53:47.579Z,87.12
2022-08-20T10:54:47.568Z,87.27
2022-08-20T10:55:47.595Z,84.43
2022-08-20T10:56:47.550Z,84.39
2022-08-20T10:57:47.541Z,83.09
2022-08-20T10:58:47.522Z,82.51
2022-08-20T10:59:48.552Z,81.27
2022-08-20T11:00:47.548Z,81.41
2022-08-20T11:01:47.584Z,82.19
2022-08-20T11:02:47.518Z,82.39
2022-08-20T11:03:47.504Z,83.05
2022-08-20T11:04:47.508Z,83.37
2022-08-20T11:05:47.549Z,80.83
2022-08-20T11:06:47.477Z,79.70
2022-08-20T11:07:55.791Z,79.72
2022-08-20T11:08:48.461Z,79.22
2022-08-20T11:09:47.445Z,77.80
2022-08-20T11:10:48.489Z,76.56
2022-08-20T11:11:47.445Z,76.30
2022-08-20T11:12:47.435Z,77.83
2022-08-20T11:13:47.432Z,78.65
2022-08-20T11:14:47.422Z,76.32
2022-08-20T11:15:47.446Z,77.09
2022-08-20T11:16:47.412Z,74.46
2022-08-20T11:17:47.403Z,75.26
2022-08-20T11:18:47.651Z,74.76
2022-08-20T11:19:47.380Z,74.99
2022-08-20T11:20:47.393Z,74.56
2022-08-20T11:21:47.376Z,74.52
2022-08-20T11:22:47.357Z,73.97
2022-08-20T11:23:47.352Z,72.97
2022-08-20T11:24:47.344Z,73.07
2022-08-20T11:25:47.359Z,74.30
2022-08-20T11:26:47.329Z,74.10
2022-08-20T11:27:47.340Z,74.00
2022-08-20T11:28:47.315Z,76.06
2022-08-20T11:29:47.331Z,74.41
2022-08-20T11:30:47.354Z,75.01
2022-08-20T11:31:47.306Z,75.50
2022-08-20T11:32:47.285Z,75.01
2022-08-20T11:33:47.283Z,75.40
2022-08-20T11:34:47.271Z,74.73
2022-08-20T11:35:49.484Z,74.27
2022-08-20T11:36:47.254Z,74.47
2022-08-20T11:37:47.248Z,74.41
2022-08-20T11:38:47.250Z,76.43
2022-08-20T11:39:47.313Z,76.40
2022-08-20T11:40:47.289Z,76.60
2022-08-20T11:41:47.220Z,75.90
2022-08-20T11:43:11.151Z,77.12
2022-08-20T11:44:10.393Z,75.16
2022-08-20T11:44:49.209Z,74.37
2022-08-20T11:45:47.220Z,75.03
2022-08-20T11:46:47.180Z,74.90
2022-08-20T11:47:47.181Z,72.97
2022-08-20T11:48:47.169Z,72.08
2022-08-20T11:49:47.169Z,72.87
2022-08-20T11:50:47.178Z,72.41
2022-08-20T11:51:49.362Z,70.92
2022-08-20T11:52:47.140Z,71.15
2022-08-20T11:53:47.134Z,71.68
2022-08-20T11:54:47.133Z,72.11
2022-08-20T11:55:47.141Z,73.11
2022-08-20T11:56:47.107Z,72.87
2022-08-20T11:57:47.100Z,72.84
2022-08-20T11:58:47.089Z,72.80
2022-08-20T11:59:47.113Z,71.67
2022-08-20T12:00:47.109Z,70.55
2022-08-20T12:02:02.535Z,71.34
2022-08-20T12:02:48.094Z,69.96
2022-08-20T12:03:47.057Z,72.14
2022-08-20T12:04:47.051Z,73.24
2022-08-20T12:05:47.094Z,73.87
2022-08-20T12:06:47.030Z,73.84
2022-08-20T12:07:47.025Z,73.18
2022-08-20T12:08:47.019Z,74.07
2022-08-20T12:09:51.142Z,74.13
2022-08-20T12:10:48.040Z,73.00
2022-08-20T12:11:46.996Z,72.55
2022-08-20T12:12:47.000Z,71.65
2022-08-20T12:13:47.939Z,72.87
2022-08-20T12:14:46.975Z,70.85
2022-08-20T12:15:47.010Z,70.88
2022-08-20T12:16:46.956Z,67.47
2022-08-20T12:17:46.950Z,68.07
2022-08-20T12:18:46.956Z,67.84
2022-08-20T12:19:46.940Z,66.22
2022-08-20T12:20:46.953Z,65.72
2022-08-20T12:21:46.921Z,65.62
2022-08-20T12:22:46.916Z,65.72
2022-08-20T12:23:46.910Z,68.70
2022-08-20T12:24:46.896Z,67.80
2022-08-20T12:25:46.914Z,64.27
2022-08-20T12:26:46.889Z,65.49
2022-08-20T12:27:46.883Z,66.51
2022-08-20T12:28:46.874Z,68.30
2022-08-20T12:29:46.862Z,68.30
2022-08-20T12:30:46.882Z,67.47
2022-08-20T12:31:46.851Z,68.20
2022-08-20T12:32:46.862Z,69.96
2022-08-20T12:33:46.837Z,70.06
2022-08-20T12:34:46.815Z,71.39
2022-08-20T12:35:47.842Z,70.95
2022-08-20T12:36:46.817Z,71.55
2022-08-20T12:37:47.070Z,72.05
2022-08-20T12:38:46.787Z,70.89
2022-08-20T12:39:46.930Z,69.99
2022-08-20T12:40:46.787Z,70.79
2022-08-20T12:41:46.766Z,71.72
2022-08-20T12:42:46.776Z,70.12
2022-08-20T12:43:46.758Z,71.98
2022-08-20T12:44:46.778Z,72.98
2022-08-20T12:45:46.749Z,72.98
2022-08-20T12:46:46.743Z,72.12
2022-08-20T12:47:46.776Z,71.92
2022-08-20T12:48:46.717Z,72.45
2022-08-20T12:49:46.740Z,73.58
2022-08-20T12:50:46.716Z,74.15
2022-08-20T12:51:46.694Z,74.08
2022-08-20T12:52:46.690Z,74.88